sensor_id;sensor_type;location;lat;lon;timestamp;temperature;humidity
21627;DHT22;10975;47.872;12.972;2023-08-06T00:00:53;16.00;99.90
21627;DHT22;10975;47.872;12.972;2023-08-06T00:03:20;15.90;99.90
21627;DHT22;10975;47.872;12.972;2023-08-06T00:05:47;15.90;99.90
21627;DHT22;10975;47.872;12.972;2023-08-06T00:08:14;15.90;99.90
21627;DHT22;10975;47.872;12.972;2023-08-06T00:10:40;15.80;99.90
21627;DHT22;10975;47.872;12.972;2023-08-06T00:13:08;15.90;99.90
21627;DHT22;10975;47.872;12.972;2023-08-06T00:15:36;15.90;99.90
21627;DHT22;10975;47.872;12.972;2023-08-06T00:18:03;15.80;99.90
21627;DHT22;10975;47.872;12.972;2023-08-06T00:20:30;15.80;99.90
21627;DHT22;10975;47.872;12.972;2023-08-06T00:22:57;15.80;99.90
21627;DHT22;10975;47.872;12.972;2023-08-06T00:25:23;15.80;99.90
21627;DHT22;10975;47.872;12.972;2023-08-06T00:27:50;15.80;99.90
21627;DHT22;10975;47.872;12.972;2023-08-06T00:30:17;15.80;99.90
21627;DHT22;10975;47.872;12.972;2023-08-06T00:32:44;15.90;99.90
21627;DHT22;10975;47.872;12.972;2023-08-06T00:35:11;15.80;99.90
21627;DHT22;10975;47.872;12.972;2023-08-06T00:37:41;15.80;99.90
21627;DHT22;10975;47.872;12.972;2023-08-06T00:40:08;15.80;99.90
21627;DHT22;10975;47.872;12.972;2023-08-06T00:42:37;15.80;99.90
21627;DHT22;10975;47.872;12.972;2023-08-06T00:45:04;15.80;99.90
21627;DHT22;10975;47.872;12.972;2023-08-06T00:47:31;15.80;99.90
21627;DHT22;10975;47.872;12.972;2023-08-06T00:50:00;15.80;99.90
21627;DHT22;10975;47.872;12.972;2023-08-06T00:52:27;15.80;99.90
21627;DHT22;10975;47.872;12.972;2023-08-06T00:54:54;15.70;99.90
21627;DHT22;10975;47.872;12.972;2023-08-06T00:57:20;15.70;99.90
21627;DHT22;10975;47.872;12.972;2023-08-06T00:59:51;15.70;99.90
21627;DHT22;10975;47.872;12.972;2023-08-06T01:02:17;15.80;99.90
21627;DHT22;10975;47.872;12.972;2023-08-06T01:04:44;15.80;99.90
21627;DHT22;10975;47.872;12.972;2023-08-06T01:15:21;15.70;99.90
21627;DHT22;10975;47.872;12.972;2023-08-06T01:17:48;15.70;99.90
21627;DHT22;10975;47.872;12.972;2023-08-06T01:20:16;15.70;99.90
21627;DHT22;10975;47.872;12.972;2023-08-06T01:22:43;15.70;99.90
21627;DHT22;10975;47.872;12.972;2023-08-06T01:25:10;15.70;99.90
21627;DHT22;10975;47.872;12.972;2023-08-06T01:27:58;15.70;99.90
21627;DHT22;10975;47.872;12.972;2023-08-06T01:30:27;15.70;99.90
21627;DHT22;10975;47.872;12.972;2023-08-06T01:32:57;15.70;99.90
21627;DHT22;10975;47.872;12.972;2023-08-06T01:35:25;15.70;99.90
21627;DHT22;10975;47.872;12.972;2023-08-06T01:37:53;15.70;99.90
21627;DHT22;10975;47.872;12.972;2023-08-06T01:40:22;15.70;99.90
21627;DHT22;10975;47.872;12.972;2023-08-06T01:42:48;15.60;99.90
21627;DHT22;10975;47.872;12.972;2023-08-06T01:45:18;15.60;99.90
21627;DHT22;10975;47.872;12.972;2023-08-06T01:47:45;15.70;99.90
21627;DHT22;10975;47.872;12.972;2023-08-06T01:50:11;15.60;99.90
21627;DHT22;10975;47.872;12.972;2023-08-06T01:52:38;15.60;99.90
21627;DHT22;10975;47.872;12.972;2023-08-06T01:55:05;15.60;99.90
21627;DHT22;10975;47.872;12.972;2023-08-06T01:57:32;15.60;99.90
21627;DHT22;10975;47.872;12.972;2023-08-06T01:59:58;15.60;99.90
21627;DHT22;10975;47.872;12.972;2023-08-06T02:02:25;15.70;99.90
21627;DHT22;10975;47.872;12.972;2023-08-06T02:04:52;15.60;99.90
21627;DHT22;10975;47.872;12.972;2023-08-06T02:07:18;15.60;99.90
21627;DHT22;10975;47.872;12.972;2023-08-06T02:09:45;15.60;99.90
21627;DHT22;10975;47.872;12.972;2023-08-06T02:12:12;15.60;99.90
21627;DHT22;10975;47.872;12.972;2023-08-06T02:14:39;15.50;99.90
21627;DHT22;10975;47.872;12.972;2023-08-06T02:17:05;15.60;99.90
21627;DHT22;10975;47.872;12.972;2023-08-06T02:19:33;15.60;99.90
21627;DHT22;10975;47.872;12.972;2023-08-06T02:22:00;15.50;99.90
21627;DHT22;10975;47.872;12.972;2023-08-06T02:24:28;15.60;99.90
21627;DHT22;10975;47.872;12.972;2023-08-06T02:26:55;15.60;99.90
21627;DHT22;10975;47.872;12.972;2023-08-06T02:29:22;15.60;99.90
21627;DHT22;10975;47.872;12.972;2023-08-06T02:31:49;15.60;99.90
21627;DHT22;10975;47.872;12.972;2023-08-06T02:34:16;15.60;99.90
21627;DHT22;10975;47.872;12.972;2023-08-06T02:36:43;15.60;99.90
21627;DHT22;10975;47.872;12.972;2023-08-06T02:39:10;15.60;99.90
21627;DHT22;10975;47.872;12.972;2023-08-06T02:41:37;15.50;99.90
21627;DHT22;10975;47.872;12.972;2023-08-06T02:44:03;15.50;99.90
21627;DHT22;10975;47.872;12.972;2023-08-06T02:46:30;15.50;99.90
21627;DHT22;10975;47.872;12.972;2023-08-06T02:48:57;15.50;99.90
21627;DHT22;10975;47.872;12.972;2023-08-06T02:51:23;15.50;99.90
21627;DHT22;10975;47.872;12.972;2023-08-06T02:53:50;15.50;99.90
21627;DHT22;10975;47.872;12.972;2023-08-06T02:56:17;15.50;99.90
21627;DHT22;10975;47.872;12.972;2023-08-06T02:58:44;15.50;99.90
21627;DHT22;10975;47.872;12.972;2023-08-06T03:01:10;15.50;99.90
21627;DHT22;10975;47.872;12.972;2023-08-06T03:03:37;15.50;99.90
21627;DHT22;10975;47.872;12.972;2023-08-06T03:06:04;15.40;99.90
21627;DHT22;10975;47.872;12.972;2023-08-06T03:08:31;15.50;99.90
21627;DHT22;10975;47.872;12.972;2023-08-06T03:10:57;15.50;99.90
21627;DHT22;10975;47.872;12.972;2023-08-06T03:13:24;15.50;99.90
21627;DHT22;10975;47.872;12.972;2023-08-06T03:15:54;15.40;99.90
21627;DHT22;10975;47.872;12.972;2023-08-06T03:18:21;15.40;99.90
21627;DHT22;10975;47.872;12.972;2023-08-06T03:20:48;15.40;99.90
21627;DHT22;10975;47.872;12.972;2023-08-06T03:23:15;15.40;99.90
21627;DHT22;10975;47.872;12.972;2023-08-06T03:25:41;15.30;99.90
21627;DHT22;10975;47.872;12.972;2023-08-06T03:28:08;15.30;99.90
21627;DHT22;10975;47.872;12.972;2023-08-06T03:30:35;15.40;99.90
21627;DHT22;10975;47.872;12.972;2023-08-06T03:33:02;15.30;99.90
21627;DHT22;10975;47.872;12.972;2023-08-06T03:35:29;15.30;99.90
21627;DHT22;10975;47.872;12.972;2023-08-06T03:37:55;15.30;99.90
21627;DHT22;10975;47.872;12.972;2023-08-06T03:40:22;15.40;99.90
21627;DHT22;10975;47.872;12.972;2023-08-06T03:42:49;15.30;99.90
21627;DHT22;10975;47.872;12.972;2023-08-06T03:45:15;15.30;99.90
21627;DHT22;10975;47.872;12.972;2023-08-06T03:47:42;15.30;99.90
21627;DHT22;10975;47.872;12.972;2023-08-06T03:50:09;15.40;99.90
21627;DHT22;10975;47.872;12.972;2023-08-06T03:52:36;15.40;99.90
21627;DHT22;10975;47.872;12.972;2023-08-06T03:55:03;15.30;99.90
21627;DHT22;10975;47.872;12.972;2023-08-06T03:57:29;15.40;99.90
21627;DHT22;10975;47.872;12.972;2023-08-06T03:59:56;15.40;99.90
21627;DHT22;10975;47.872;12.972;2023-08-06T04:02:23;15.40;99.90
21627;DHT22;10975;47.872;12.972;2023-08-06T04:04:50;15.30;99.90
21627;DHT22;10975;47.872;12.972;2023-08-06T04:07:16;15.30;99.90
21627;DHT22;10975;47.872;12.972;2023-08-06T04:09:53;15.30;99.90
21627;DHT22;10975;47.872;12.972;2023-08-06T04:12:20;15.30;99.90
21627;DHT22;10975;47.872;12.972;2023-08-06T04:14:49;15.30;99.90
21627;DHT22;10975;47.872;12.972;2023-08-06T04:17:16;15.30;99.90
21627;DHT22;10975;47.872;12.972;2023-08-06T04:19:42;15.30;99.90
21627;DHT22;10975;47.872;12.972;2023-08-06T04:22:09;15.30;99.90
21627;DHT22;10975;47.872;12.972;2023-08-06T04:24:36;15.30;99.90
21627;DHT22;10975;47.872;12.972;2023-08-06T04:27:03;15.20;99.90
21627;DHT22;10975;47.872;12.972;2023-08-06T04:29:29;15.20;99.90
21627;DHT22;10975;47.872;12.972;2023-08-06T04:31:56;15.20;99.90
21627;DHT22;10975;47.872;12.972;2023-08-06T04:34:23;15.20;99.90
21627;DHT22;10975;47.872;12.972;2023-08-06T04:36:50;15.20;99.90
21627;DHT22;10975;47.872;12.972;2023-08-06T04:39:16;15.20;99.90
21627;DHT22;10975;47.872;12.972;2023-08-06T04:41:43;15.30;99.90
21627;DHT22;10975;47.872;12.972;2023-08-06T04:44:10;15.30;99.90
21627;DHT22;10975;47.872;12.972;2023-08-06T04:46:37;15.30;99.90
21627;DHT22;10975;47.872;12.972;2023-08-06T04:49:04;15.30;99.90
21627;DHT22;10975;47.872;12.972;2023-08-06T04:51:30;15.30;99.90
21627;DHT22;10975;47.872;12.972;2023-08-06T04:53:57;15.40;99.90
21627;DHT22;10975;47.872;12.972;2023-08-06T04:56:24;15.30;99.90
21627;DHT22;10975;47.872;12.972;2023-08-06T04:58:51;15.30;99.90
21627;DHT22;10975;47.872;12.972;2023-08-06T05:01:18;15.30;99.90
21627;DHT22;10975;47.872;12.972;2023-08-06T05:03:44;15.30;99.90
21627;DHT22;10975;47.872;12.972;2023-08-06T05:06:11;15.40;99.90
21627;DHT22;10975;47.872;12.972;2023-08-06T05:08:38;15.40;99.90
21627;DHT22;10975;47.872;12.972;2023-08-06T05:11:05;15.40;99.90
21627;DHT22;10975;47.872;12.972;2023-08-06T05:13:31;15.40;99.90
21627;DHT22;10975;47.872;12.972;2023-08-06T05:15:58;15.50;99.90
21627;DHT22;10975;47.872;12.972;2023-08-06T05:18:25;15.50;99.90
21627;DHT22;10975;47.872;12.972;2023-08-06T05:20:51;15.50;99.90
21627;DHT22;10975;47.872;12.972;2023-08-06T05:23:18;15.50;99.90
21627;DHT22;10975;47.872;12.972;2023-08-06T05:25:45;15.60;99.90
21627;DHT22;10975;47.872;12.972;2023-08-06T05:28:11;15.70;99.90
21627;DHT22;10975;47.872;12.972;2023-08-06T05:30:39;15.70;99.90
21627;DHT22;10975;47.872;12.972;2023-08-06T05:33:05;15.80;99.90
21627;DHT22;10975;47.872;12.972;2023-08-06T05:35:32;15.80;99.90
21627;DHT22;10975;47.872;12.972;2023-08-06T05:37:59;15.90;99.90
21627;DHT22;10975;47.872;12.972;2023-08-06T05:40:26;15.90;99.90
21627;DHT22;10975;47.872;12.972;2023-08-06T05:42:53;15.90;99.90
21627;DHT22;10975;47.872;12.972;2023-08-06T05:45:20;15.90;99.90
21627;DHT22;10975;47.872;12.972;2023-08-06T05:47:50;15.90;99.90
21627;DHT22;10975;47.872;12.972;2023-08-06T05:50:17;15.90;99.90
21627;DHT22;10975;47.872;12.972;2023-08-06T05:52:47;16.00;99.90
21627;DHT22;10975;47.872;12.972;2023-08-06T05:55:14;16.00;99.90
21627;DHT22;10975;47.872;12.972;2023-08-06T05:57:40;15.90;99.90
21627;DHT22;10975;47.872;12.972;2023-08-06T06:00:07;16.00;99.90
21627;DHT22;10975;47.872;12.972;2023-08-06T06:02:34;16.00;99.90
21627;DHT22;10975;47.872;12.972;2023-08-06T06:05:01;16.10;99.90
21627;DHT22;10975;47.872;12.972;2023-08-06T06:07:27;16.10;99.90
21627;DHT22;10975;47.872;12.972;2023-08-06T06:09:54;16.10;99.90
21627;DHT22;10975;47.872;12.972;2023-08-06T06:12:21;16.20;99.90
21627;DHT22;10975;47.872;12.972;2023-08-06T06:14:48;16.20;99.90
21627;DHT22;10975;47.872;12.972;2023-08-06T06:17:15;16.30;99.90
21627;DHT22;10975;47.872;12.972;2023-08-06T06:19:43;16.30;99.90
21627;DHT22;10975;47.872;12.972;2023-08-06T06:22:09;16.30;99.90
21627;DHT22;10975;47.872;12.972;2023-08-06T06:24:36;16.40;99.90
21627;DHT22;10975;47.872;12.972;2023-08-06T06:27:03;16.40;99.90
21627;DHT22;10975;47.872;12.972;2023-08-06T06:29:30;16.40;99.90
21627;DHT22;10975;47.872;12.972;2023-08-06T06:31:56;16.40;99.90
21627;DHT22;10975;47.872;12.972;2023-08-06T06:34:23;16.40;99.90
21627;DHT22;10975;47.872;12.972;2023-08-06T06:36:50;16.40;99.90
21627;DHT22;10975;47.872;12.972;2023-08-06T06:39:17;16.40;99.90
21627;DHT22;10975;47.872;12.972;2023-08-06T06:41:44;16.40;99.90
21627;DHT22;10975;47.872;12.972;2023-08-06T06:44:10;16.50;99.90
21627;DHT22;10975;47.872;12.972;2023-08-06T06:46:37;16.70;99.90
21627;DHT22;10975;47.872;12.972;2023-08-06T06:49:04;16.70;99.90
21627;DHT22;10975;47.872;12.972;2023-08-06T06:51:31;16.70;99.90
21627;DHT22;10975;47.872;12.972;2023-08-06T06:53:58;16.70;99.90
21627;DHT22;10975;47.872;12.972;2023-08-06T06:56:25;16.70;99.90
21627;DHT22;10975;47.872;12.972;2023-08-06T06:58:51;16.80;99.90
21627;DHT22;10975;47.872;12.972;2023-08-06T07:01:18;16.80;99.90
21627;DHT22;10975;47.872;12.972;2023-08-06T07:03:45;16.60;99.90
21627;DHT22;10975;47.872;12.972;2023-08-06T07:06:12;16.60;99.90
21627;DHT22;10975;47.872;12.972;2023-08-06T07:08:39;16.50;99.90
21627;DHT22;10975;47.872;12.972;2023-08-06T07:11:08;16.30;99.90
21627;DHT22;10975;47.872;12.972;2023-08-06T07:13:34;16.10;99.90
21627;DHT22;10975;47.872;12.972;2023-08-06T07:16:01;16.00;99.90
21627;DHT22;10975;47.872;12.972;2023-08-06T07:18:28;15.80;99.90
21627;DHT22;10975;47.872;12.972;2023-08-06T07:20:58;15.80;99.90
21627;DHT22;10975;47.872;12.972;2023-08-06T07:23:27;15.90;99.90
21627;DHT22;10975;47.872;12.972;2023-08-06T07:25:54;15.90;99.90
21627;DHT22;10975;47.872;12.972;2023-08-06T07:28:20;16.10;99.90
21627;DHT22;10975;47.872;12.972;2023-08-06T07:30:47;16.10;99.90
21627;DHT22;10975;47.872;12.972;2023-08-06T07:33:14;16.30;99.90
21627;DHT22;10975;47.872;12.972;2023-08-06T07:35:41;16.40;99.90
21627;DHT22;10975;47.872;12.972;2023-08-06T07:38:07;16.40;99.90
21627;DHT22;10975;47.872;12.972;2023-08-06T07:40:35;16.40;99.90
21627;DHT22;10975;47.872;12.972;2023-08-06T07:43:02;16.50;99.90
21627;DHT22;10975;47.872;12.972;2023-08-06T07:45:32;16.40;99.90
21627;DHT22;10975;47.872;12.972;2023-08-06T07:47:58;16.40;99.90
21627;DHT22;10975;47.872;12.972;2023-08-06T07:50:25;16.50;99.90
21627;DHT22;10975;47.872;12.972;2023-08-06T07:52:52;16.60;99.90
21627;DHT22;10975;47.872;12.972;2023-08-06T07:55:18;16.70;99.90
21627;DHT22;10975;47.872;12.972;2023-08-06T07:57:45;16.80;99.90
21627;DHT22;10975;47.872;12.972;2023-08-06T08:00:12;16.90;99.90
21627;DHT22;10975;47.872;12.972;2023-08-06T08:02:38;16.90;99.90
21627;DHT22;10975;47.872;12.972;2023-08-06T08:05:05;17.00;99.90
21627;DHT22;10975;47.872;12.972;2023-08-06T08:07:34;17.10;99.90
21627;DHT22;10975;47.872;12.972;2023-08-06T08:10:01;17.20;99.90
21627;DHT22;10975;47.872;12.972;2023-08-06T08:12:28;17.30;99.90
21627;DHT22;10975;47.872;12.972;2023-08-06T08:14:54;17.40;99.90
21627;DHT22;10975;47.872;12.972;2023-08-06T08:17:21;17.50;99.90
21627;DHT22;10975;47.872;12.972;2023-08-06T08:19:48;17.70;99.90
21627;DHT22;10975;47.872;12.972;2023-08-06T08:22:15;17.80;99.90
21627;DHT22;10975;47.872;12.972;2023-08-06T08:24:41;18.00;99.90
21627;DHT22;10975;47.872;12.972;2023-08-06T08:27:08;18.30;99.90
21627;DHT22;10975;47.872;12.972;2023-08-06T08:29:35;18.00;99.90
21627;DHT22;10975;47.872;12.972;2023-08-06T08:32:02;17.80;99.90
21627;DHT22;10975;47.872;12.972;2023-08-06T08:34:29;17.80;99.90
21627;DHT22;10975;47.872;12.972;2023-08-06T08:36:56;17.90;99.90
21627;DHT22;10975;47.872;12.972;2023-08-06T08:39:22;18.10;99.90
21627;DHT22;10975;47.872;12.972;2023-08-06T08:41:49;18.00;99.90
21627;DHT22;10975;47.872;12.972;2023-08-06T08:44:16;18.00;99.90
21627;DHT22;10975;47.872;12.972;2023-08-06T08:46:43;18.30;99.90
21627;DHT22;10975;47.872;12.972;2023-08-06T08:49:12;18.70;99.90
21627;DHT22;10975;47.872;12.972;2023-08-06T08:51:39;18.60;99.90
21627;DHT22;10975;47.872;12.972;2023-08-06T08:54:06;18.40;99.90
21627;DHT22;10975;47.872;12.972;2023-08-06T08:56:34;18.40;99.90
21627;DHT22;10975;47.872;12.972;2023-08-06T08:59:06;18.30;99.90
21627;DHT22;10975;47.872;12.972;2023-08-06T09:01:32;18.20;99.90
21627;DHT22;10975;47.872;12.972;2023-08-06T09:03:59;18.60;99.90
21627;DHT22;10975;47.872;12.972;2023-08-06T09:06:27;18.60;99.90
21627;DHT22;10975;47.872;12.972;2023-08-06T09:09:01;18.40;99.90
21627;DHT22;10975;47.872;12.972;2023-08-06T09:11:29;18.50;99.90
21627;DHT22;10975;47.872;12.972;2023-08-06T09:13:58;18.40;99.90
21627;DHT22;10975;47.872;12.972;2023-08-06T09:16:34;18.20;99.90
21627;DHT22;10975;47.872;12.972;2023-08-06T09:19:13;18.00;99.90
21627;DHT22;10975;47.872;12.972;2023-08-06T09:22:02;18.10;99.90
21627;DHT22;10975;47.872;12.972;2023-08-06T09:24:47;18.20;99.90
21627;DHT22;10975;47.872;12.972;2023-08-06T09:27:17;18.30;99.90
21627;DHT22;10975;47.872;12.972;2023-08-06T09:30:31;18.20;99.90
21627;DHT22;10975;47.872;12.972;2023-08-06T09:33:35;18.30;99.90
21627;DHT22;10975;47.872;12.972;2023-08-06T09:36:52;18.50;99.90
21627;DHT22;10975;47.872;12.972;2023-08-06T09:42:56;18.70;99.90
21627;DHT22;10975;47.872;12.972;2023-08-06T09:49:26;18.60;99.90
21627;DHT22;10975;47.872;12.972;2023-08-06T09:52:10;18.70;99.90
21627;DHT22;10975;47.872;12.972;2023-08-06T09:54:38;19.00;99.90
21627;DHT22;10975;47.872;12.972;2023-08-06T09:57:08;18.80;99.90
21627;DHT22;10975;47.872;12.972;2023-08-06T09:59:47;19.00;99.90
21627;DHT22;10975;47.872;12.972;2023-08-06T10:03:11;19.00;99.90
21627;DHT22;10975;47.872;12.972;2023-08-06T10:05:55;19.10;99.90
21627;DHT22;10975;47.872;12.972;2023-08-06T10:08:41;18.80;99.90
21627;DHT22;10975;47.872;12.972;2023-08-06T10:11:24;19.10;99.90
21627;DHT22;10975;47.872;12.972;2023-08-06T10:14:00;19.10;99.90
21627;DHT22;10975;47.872;12.972;2023-08-06T10:16:37;18.90;99.90
21627;DHT22;10975;47.872;12.972;2023-08-06T10:19:09;19.00;99.90
21627;DHT22;10975;47.872;12.972;2023-08-06T10:24:45;18.70;99.90
21627;DHT22;10975;47.872;12.972;2023-08-06T10:29:52;18.80;99.90
21627;DHT22;10975;47.872;12.972;2023-08-06T10:32:41;19.00;99.90
21627;DHT22;10975;47.872;12.972;2023-08-06T10:38:11;19.10;99.90
21627;DHT22;10975;47.872;12.972;2023-08-06T10:41:00;19.10;99.90
21627;DHT22;10975;47.872;12.972;2023-08-06T10:45:55;18.80;99.90
21627;DHT22;10975;47.872;12.972;2023-08-06T10:48:38;18.40;99.90
21627;DHT22;10975;47.872;12.972;2023-08-06T10:51:07;18.00;99.90
21627;DHT22;10975;47.872;12.972;2023-08-06T10:53:34;17.80;99.90
21627;DHT22;10975;47.872;12.972;2023-08-06T10:56:01;18.00;99.90
21627;DHT22;10975;47.872;12.972;2023-08-06T10:58:32;18.00;99.90
21627;DHT22;10975;47.872;12.972;2023-08-06T11:00:59;18.00;99.90
21627;DHT22;10975;47.872;12.972;2023-08-06T11:03:27;18.00;99.90
21627;DHT22;10975;47.872;12.972;2023-08-06T11:05:54;17.90;99.90
21627;DHT22;10975;47.872;12.972;2023-08-06T11:08:46;17.70;99.90
21627;DHT22;10975;47.872;12.972;2023-08-06T11:11:14;17.50;99.90
21627;DHT22;10975;47.872;12.972;2023-08-06T11:14:02;17.50;99.90
21627;DHT22;10975;47.872;12.972;2023-08-06T11:16:29;17.80;99.90
21627;DHT22;10975;47.872;12.972;2023-08-06T11:18:55;17.90;99.90
21627;DHT22;10975;47.872;12.972;2023-08-06T11:24:49;18.50;99.90
21627;DHT22;10975;47.872;12.972;2023-08-06T11:27:25;18.60;99.90
21627;DHT22;10975;47.872;12.972;2023-08-06T11:29:55;18.60;99.90
21627;DHT22;10975;47.872;12.972;2023-08-06T11:32:53;18.60;99.90
21627;DHT22;10975;47.872;12.972;2023-08-06T11:35:22;18.50;99.90
21627;DHT22;10975;47.872;12.972;2023-08-06T11:37:54;18.30;99.90
21627;DHT22;10975;47.872;12.972;2023-08-06T11:40:44;18.30;99.90
21627;DHT22;10975;47.872;12.972;2023-08-06T11:43:34;18.10;99.90
21627;DHT22;10975;47.872;12.972;2023-08-06T11:46:01;18.30;99.90
21627;DHT22;10975;47.872;12.972;2023-08-06T11:48:29;18.50;99.90
21627;DHT22;10975;47.872;12.972;2023-08-06T11:52:00;18.70;99.90
21627;DHT22;10975;47.872;12.972;2023-08-06T11:57:51;19.50;99.90
21627;DHT22;10975;47.872;12.972;2023-08-06T12:00:18;19.40;99.90
21627;DHT22;10975;47.872;12.972;2023-08-06T12:03:00;19.20;99.90
21627;DHT22;10975;47.872;12.972;2023-08-06T12:05:30;19.20;99.90
21627;DHT22;10975;47.872;12.972;2023-08-06T12:08:05;19.20;99.90
21627;DHT22;10975;47.872;12.972;2023-08-06T12:10:32;19.10;99.90
21627;DHT22;10975;47.872;12.972;2023-08-06T12:12:59;19.20;99.90
21627;DHT22;10975;47.872;12.972;2023-08-06T12:15:26;19.50;99.90
21627;DHT22;10975;47.872;12.972;2023-08-06T12:17:53;19.70;99.90
21627;DHT22;10975;47.872;12.972;2023-08-06T12:20:20;19.80;99.90
21627;DHT22;10975;47.872;12.972;2023-08-06T12:22:47;19.70;99.90
21627;DHT22;10975;47.872;12.972;2023-08-06T12:25:18;19.30;99.90
21627;DHT22;10975;47.872;12.972;2023-08-06T12:27:44;19.20;99.90
21627;DHT22;10975;47.872;12.972;2023-08-06T12:30:12;19.10;99.90
21627;DHT22;10975;47.872;12.972;2023-08-06T12:32:39;19.30;99.90
21627;DHT22;10975;47.872;12.972;2023-08-06T12:35:07;19.20;99.90
21627;DHT22;10975;47.872;12.972;2023-08-06T12:37:34;19.10;99.90
21627;DHT22;10975;47.872;12.972;2023-08-06T12:40:01;19.20;99.90
21627;DHT22;10975;47.872;12.972;2023-08-06T12:42:49;19.40;99.90
21627;DHT22;10975;47.872;12.972;2023-08-06T12:45:16;19.50;99.90
21627;DHT22;10975;47.872;12.972;2023-08-06T12:47:46;19.60;99.90
21627;DHT22;10975;47.872;12.972;2023-08-06T12:50:13;19.40;99.90
21627;DHT22;10975;47.872;12.972;2023-08-06T12:52:46;19.30;99.90
21627;DHT22;10975;47.872;12.972;2023-08-06T12:55:14;19.40;99.90
21627;DHT22;10975;47.872;12.972;2023-08-06T12:57:46;19.80;99.90
21627;DHT22;10975;47.872;12.972;2023-08-06T13:00:25;19.80;99.90
21627;DHT22;10975;47.872;12.972;2023-08-06T13:02:52;19.80;99.90
21627;DHT22;10975;47.872;12.972;2023-08-06T13:05:19;19.80;99.90
21627;DHT22;10975;47.872;12.972;2023-08-06T13:07:46;19.80;99.90
21627;DHT22;10975;47.872;12.972;2023-08-06T13:10:13;19.50;99.90
21627;DHT22;10975;47.872;12.972;2023-08-06T13:12:40;19.90;99.90
21627;DHT22;10975;47.872;12.972;2023-08-06T13:15:06;19.80;99.90
21627;DHT22;10975;47.872;12.972;2023-08-06T13:17:33;19.90;99.90
21627;DHT22;10975;47.872;12.972;2023-08-06T13:20:00;20.00;99.90
21627;DHT22;10975;47.872;12.972;2023-08-06T13:22:27;19.80;99.90
21627;DHT22;10975;47.872;12.972;2023-08-06T13:24:54;19.60;99.90
21627;DHT22;10975;47.872;12.972;2023-08-06T13:27:21;19.90;99.90
21627;DHT22;10975;47.872;12.972;2023-08-06T13:29:47;19.90;99.90
21627;DHT22;10975;47.872;12.972;2023-08-06T13:32:14;19.80;99.90
21627;DHT22;10975;47.872;12.972;2023-08-06T13:34:41;19.70;99.90
21627;DHT22;10975;47.872;12.972;2023-08-06T13:37:09;19.50;99.90
21627;DHT22;10975;47.872;12.972;2023-08-06T13:39:35;19.60;99.90
21627;DHT22;10975;47.872;12.972;2023-08-06T13:42:02;19.60;99.90
21627;DHT22;10975;47.872;12.972;2023-08-06T13:44:29;19.70;99.90
21627;DHT22;10975;47.872;12.972;2023-08-06T13:46:59;20.20;99.90
21627;DHT22;10975;47.872;12.972;2023-08-06T13:49:26;20.20;99.90
21627;DHT22;10975;47.872;12.972;2023-08-06T13:52:07;20.20;99.90
21627;DHT22;10975;47.872;12.972;2023-08-06T13:54:47;20.10;99.90
21627;DHT22;10975;47.872;12.972;2023-08-06T13:57:14;19.80;99.90
21627;DHT22;10975;47.872;12.972;2023-08-06T13:59:41;19.60;99.90
21627;DHT22;10975;47.872;12.972;2023-08-06T14:02:07;19.10;99.90
21627;DHT22;10975;47.872;12.972;2023-08-06T14:04:34;19.00;99.90
21627;DHT22;10975;47.872;12.972;2023-08-06T14:07:01;19.20;99.90
21627;DHT22;10975;47.872;12.972;2023-08-06T14:09:29;19.30;99.90
21627;DHT22;10975;47.872;12.972;2023-08-06T14:11:56;19.50;99.90
21627;DHT22;10975;47.872;12.972;2023-08-06T14:14:24;19.70;99.90
21627;DHT22;10975;47.872;12.972;2023-08-06T14:16:53;19.50;99.90
21627;DHT22;10975;47.872;12.972;2023-08-06T14:19:40;19.60;99.90
21627;DHT22;10975;47.872;12.972;2023-08-06T14:22:10;19.40;99.90
21627;DHT22;10975;47.872;12.972;2023-08-06T14:24:59;19.30;99.90
21627;DHT22;10975;47.872;12.972;2023-08-06T14:27:26;19.00;99.90
21627;DHT22;10975;47.872;12.972;2023-08-06T14:29:53;18.70;99.90
21627;DHT22;10975;47.872;12.972;2023-08-06T14:32:23;18.90;99.90
21627;DHT22;10975;47.872;12.972;2023-08-06T14:34:50;19.00;99.90
21627;DHT22;10975;47.872;12.972;2023-08-06T14:37:19;18.90;99.90
21627;DHT22;10975;47.872;12.972;2023-08-06T14:39:47;19.10;99.90
21627;DHT22;10975;47.872;12.972;2023-08-06T14:42:21;19.20;99.90
21627;DHT22;10975;47.872;12.972;2023-08-06T14:44:48;19.20;99.90
21627;DHT22;10975;47.872;12.972;2023-08-06T14:47:15;19.40;99.90
21627;DHT22;10975;47.872;12.972;2023-08-06T14:49:42;19.30;99.90
21627;DHT22;10975;47.872;12.972;2023-08-06T14:52:08;18.90;99.90
21627;DHT22;10975;47.872;12.972;2023-08-06T14:54:35;18.80;99.90
21627;DHT22;10975;47.872;12.972;2023-08-06T14:57:02;18.70;99.90
21627;DHT22;10975;47.872;12.972;2023-08-06T14:59:49;18.70;99.90
21627;DHT22;10975;47.872;12.972;2023-08-06T15:02:17;18.50;99.90
21627;DHT22;10975;47.872;12.972;2023-08-06T15:04:59;18.10;99.90
21627;DHT22;10975;47.872;12.972;2023-08-06T15:07:26;17.90;99.90
21627;DHT22;10975;47.872;12.972;2023-08-06T15:09:57;17.70;99.90
21627;DHT22;10975;47.872;12.972;2023-08-06T15:12:44;17.60;99.90
21627;DHT22;10975;47.872;12.972;2023-08-06T15:15:14;17.60;99.90
21627;DHT22;10975;47.872;12.972;2023-08-06T15:17:41;17.60;99.90
21627;DHT22;10975;47.872;12.972;2023-08-06T15:20:08;17.70;99.90
21627;DHT22;10975;47.872;12.972;2023-08-06T15:22:34;17.60;99.90
21627;DHT22;10975;47.872;12.972;2023-08-06T15:25:02;17.60;99.90
21627;DHT22;10975;47.872;12.972;2023-08-06T15:27:29;17.50;99.90
21627;DHT22;10975;47.872;12.972;2023-08-06T15:29:56;17.60;99.90
21627;DHT22;10975;47.872;12.972;2023-08-06T15:32:23;17.60;99.90
21627;DHT22;10975;47.872;12.972;2023-08-06T15:34:51;17.40;99.90
21627;DHT22;10975;47.872;12.972;2023-08-06T15:37:18;17.40;99.90
21627;DHT22;10975;47.872;12.972;2023-08-06T15:39:45;17.30;99.90
21627;DHT22;10975;47.872;12.972;2023-08-06T15:42:12;17.30;99.90
21627;DHT22;10975;47.872;12.972;2023-08-06T15:44:39;17.20;99.90
21627;DHT22;10975;47.872;12.972;2023-08-06T15:47:26;17.10;99.90
21627;DHT22;10975;47.872;12.972;2023-08-06T15:49:55;17.00;99.90
21627;DHT22;10975;47.872;12.972;2023-08-06T15:52:26;16.80;99.90
21627;DHT22;10975;47.872;12.972;2023-08-06T15:54:52;16.70;99.90
21627;DHT22;10975;47.872;12.972;2023-08-06T15:57:19;16.80;99.90
21627;DHT22;10975;47.872;12.972;2023-08-06T15:59:46;16.60;99.90
21627;DHT22;10975;47.872;12.972;2023-08-06T16:02:13;16.60;99.90